sensor_id;sensor_type;location;lat;lon;timestamp;P1;durP1;ratioP1;P2;durP2;ratioP2
17937;SDS011;16051;53.024;8.630;2023-04-06T00:01:42;5.63;;;4.50;;
17937;SDS011;16051;53.024;8.630;2023-04-06T00:05:47;4.97;;;4.40;;
17937;SDS011;16051;53.024;8.630;2023-04-06T00:14:22;7.03;;;4.10;;
17937;SDS011;16051;53.024;8.630;2023-04-06T00:18:29;5.83;;;4.27;;
17937;SDS011;16051;53.024;8.630;2023-04-06T00:22:33;5.30;;;4.17;;
17937;SDS011;16051;53.024;8.630;2023-04-06T00:26:35;5.60;;;4.33;;
17937;SDS011;16051;53.024;8.630;2023-04-06T00:30:44;6.50;;;3.97;;
17937;SDS011;16051;53.024;8.630;2023-04-06T00:34:46;6.00;;;4.20;;
17937;SDS011;16051;53.024;8.630;2023-04-06T00:38:49;4.90;;;4.40;;
17937;SDS011;16051;53.024;8.630;2023-04-06T00:42:52;5.37;;;4.10;;
17937;SDS011;16051;53.024;8.630;2023-04-06T00:46:54;4.70;;;4.20;;
17937;SDS011;16051;53.024;8.630;2023-04-06T00:50:57;5.57;;;4.13;;
17937;SDS011;16051;53.024;8.630;2023-04-06T00:55:00;5.17;;;4.17;;
17937;SDS011;16051;53.024;8.630;2023-04-06T00:59:02;6.60;;;5.10;;
17937;SDS011;16051;53.024;8.630;2023-04-06T01:03:05;6.27;;;4.70;;
17937;SDS011;16051;53.024;8.630;2023-04-06T01:07:08;6.10;;;4.90;;
17937;SDS011;16051;53.024;8.630;2023-04-06T01:11:21;6.77;;;5.23;;
17937;SDS011;16051;53.024;8.630;2023-04-06T01:15:23;7.10;;;5.50;;
17937;SDS011;16051;53.024;8.630;2023-04-06T01:19:35;7.50;;;5.43;;
17937;SDS011;16051;53.024;8.630;2023-04-06T01:23:39;7.67;;;5.20;;
17937;SDS011;16051;53.024;8.630;2023-04-06T01:27:41;6.43;;;5.40;;
17937;SDS011;16051;53.024;8.630;2023-04-06T01:31:43;7.80;;;5.67;;
17937;SDS011;16051;53.024;8.630;2023-04-06T01:35:50;8.23;;;5.20;;
17937;SDS011;16051;53.024;8.630;2023-04-06T01:39:53;8.70;;;5.87;;
17937;SDS011;16051;53.024;8.630;2023-04-06T01:43:56;6.83;;;5.73;;
17937;SDS011;16051;53.024;8.630;2023-04-06T01:48:02;8.93;;;5.20;;
17937;SDS011;16051;53.024;8.630;2023-04-06T01:52:05;6.47;;;5.50;;
17937;SDS011;16051;53.024;8.630;2023-04-06T01:56:09;6.40;;;4.97;;
17937;SDS011;16051;53.024;8.630;2023-04-06T02:00:11;6.33;;;4.47;;
17937;SDS011;16051;53.024;8.630;2023-04-06T02:04:17;7.40;;;4.23;;
17937;SDS011;16051;53.024;8.630;2023-04-06T02:08:19;5.60;;;4.63;;
17937;SDS011;16051;53.024;8.630;2023-04-06T02:12:23;5.17;;;3.97;;
17937;SDS011;16051;53.024;8.630;2023-04-06T02:16:25;5.70;;;4.60;;
17937;SDS011;16051;53.024;8.630;2023-04-06T02:20:27;6.07;;;4.47;;
17937;SDS011;16051;53.024;8.630;2023-04-06T02:28:53;6.03;;;4.47;;
17937;SDS011;16051;53.024;8.630;2023-04-06T02:37:06;6.57;;;4.50;;
17937;SDS011;16051;53.024;8.630;2023-04-06T02:41:08;8.43;;;5.67;;
17937;SDS011;16051;53.024;8.630;2023-04-06T02:45:12;8.87;;;5.80;;
17937;SDS011;16051;53.024;8.630;2023-04-06T02:49:17;7.90;;;5.30;;
17937;SDS011;16051;53.024;8.630;2023-04-06T02:53:19;7.70;;;5.33;;
17937;SDS011;16051;53.024;8.630;2023-04-06T02:57:21;7.37;;;5.10;;
17937;SDS011;16051;53.024;8.630;2023-04-06T03:01:25;7.00;;;5.33;;
17937;SDS011;16051;53.024;8.630;2023-04-06T03:05:28;8.87;;;5.40;;
17937;SDS011;16051;53.024;8.630;2023-04-06T03:09:30;6.90;;;5.63;;
17937;SDS011;16051;53.024;8.630;2023-04-06T03:13:33;6.67;;;5.63;;
17937;SDS011;16051;53.024;8.630;2023-04-06T03:17:36;6.63;;;5.57;;
17937;SDS011;16051;53.024;8.630;2023-04-06T03:21:41;6.13;;;5.53;;
17937;SDS011;16051;53.024;8.630;2023-04-06T03:25:43;6.90;;;5.67;;
17937;SDS011;16051;53.024;8.630;2023-04-06T03:29:45;9.03;;;6.33;;
17937;SDS011;16051;53.024;8.630;2023-04-06T03:34:03;8.40;;;5.77;;
17937;SDS011;16051;53.024;8.630;2023-04-06T03:38:05;7.23;;;5.57;;
17937;SDS011;16051;53.024;8.630;2023-04-06T03:42:07;7.73;;;6.00;;
17937;SDS011;16051;53.024;8.630;2023-04-06T03:46:10;9.87;;;6.20;;
17937;SDS011;16051;53.024;8.630;2023-04-06T03:50:14;7.77;;;5.90;;
17937;SDS011;16051;53.024;8.630;2023-04-06T03:54:18;10.23;;;6.80;;
17937;SDS011;16051;53.024;8.630;2023-04-06T03:58:20;7.30;;;5.90;;
17937;SDS011;16051;53.024;8.630;2023-04-06T04:02:23;7.60;;;6.47;;
17937;SDS011;16051;53.024;8.630;2023-04-06T04:06:26;7.67;;;5.70;;
17937;SDS011;16051;53.024;8.630;2023-04-06T04:10:28;7.50;;;6.13;;
17937;SDS011;16051;53.024;8.630;2023-04-06T04:14:30;8.43;;;5.50;;
17937;SDS011;16051;53.024;8.630;2023-04-06T04:18:32;6.93;;;5.30;;
17937;SDS011;16051;53.024;8.630;2023-04-06T04:22:36;7.80;;;5.40;;
17937;SDS011;16051;53.024;8.630;2023-04-06T04:26:44;8.53;;;5.57;;
17937;SDS011;16051;53.024;8.630;2023-04-06T04:30:46;7.30;;;5.03;;
17937;SDS011;16051;53.024;8.630;2023-04-06T04:34:50;7.20;;;6.03;;
17937;SDS011;16051;53.024;8.630;2023-04-06T04:38:54;6.87;;;5.60;;
17937;SDS011;16051;53.024;8.630;2023-04-06T04:43:01;8.83;;;6.47;;
17937;SDS011;16051;53.024;8.630;2023-04-06T04:47:04;7.13;;;6.33;;
17937;SDS011;16051;53.024;8.630;2023-04-06T04:51:12;10.17;;;6.83;;
17937;SDS011;16051;53.024;8.630;2023-04-06T04:55:16;14.20;;;7.87;;
17937;SDS011;16051;53.024;8.630;2023-04-06T04:59:18;9.33;;;7.47;;
17937;SDS011;16051;53.024;8.630;2023-04-06T05:03:21;9.73;;;7.53;;
17937;SDS011;16051;53.024;8.630;2023-04-06T05:07:29;10.70;;;8.43;;
17937;SDS011;16051;53.024;8.630;2023-04-06T05:11:32;10.57;;;8.23;;
17937;SDS011;16051;53.024;8.630;2023-04-06T05:15:44;10.93;;;8.23;;
17937;SDS011;16051;53.024;8.630;2023-04-06T05:19:47;12.20;;;8.80;;
17937;SDS011;16051;53.024;8.630;2023-04-06T05:23:51;12.87;;;8.73;;
17937;SDS011;16051;53.024;8.630;2023-04-06T05:27:55;12.67;;;9.37;;
17937;SDS011;16051;53.024;8.630;2023-04-06T05:31:57;13.67;;;9.47;;
17937;SDS011;16051;53.024;8.630;2023-04-06T05:35:59;11.37;;;9.33;;
17937;SDS011;16051;53.024;8.630;2023-04-06T05:40:04;12.57;;;9.67;;
17937;SDS011;16051;53.024;8.630;2023-04-06T05:44:10;13.77;;;9.23;;
17937;SDS011;16051;53.024;8.630;2023-04-06T05:48:13;12.03;;;8.80;;
17937;SDS011;16051;53.024;8.630;2023-04-06T05:52:15;14.37;;;9.93;;
17937;SDS011;16051;53.024;8.630;2023-04-06T05:56:18;10.20;;;8.60;;
17937;SDS011;16051;53.024;8.630;2023-04-06T06:00:21;11.27;;;9.67;;
17937;SDS011;16051;53.024;8.630;2023-04-06T06:04:35;12.13;;;9.37;;
17937;SDS011;16051;53.024;8.630;2023-04-06T06:08:37;15.13;;;9.40;;
17937;SDS011;16051;53.024;8.630;2023-04-06T06:16:46;14.27;;;9.40;;
17937;SDS011;16051;53.024;8.630;2023-04-06T06:20:48;11.53;;;8.70;;
17937;SDS011;16051;53.024;8.630;2023-04-06T06:24:53;13.40;;;9.33;;
17937;SDS011;16051;53.024;8.630;2023-04-06T06:28:55;13.30;;;8.67;;
17937;SDS011;16051;53.024;8.630;2023-04-06T06:33:04;10.77;;;9.03;;
17937;SDS011;16051;53.024;8.630;2023-04-06T06:37:06;15.43;;;9.67;;
17937;SDS011;16051;53.024;8.630;2023-04-06T06:41:09;10.47;;;8.90;;
17937;SDS011;16051;53.024;8.630;2023-04-06T06:45:12;11.57;;;8.50;;
17937;SDS011;16051;53.024;8.630;2023-04-06T06:49:15;11.00;;;8.77;;
17937;SDS011;16051;53.024;8.630;2023-04-06T06:53:18;10.20;;;8.70;;
17937;SDS011;16051;53.024;8.630;2023-04-06T07:01:44;10.87;;;9.03;;
17937;SDS011;16051;53.024;8.630;2023-04-06T07:05:55;10.33;;;8.00;;
17937;SDS011;16051;53.024;8.630;2023-04-06T07:09:57;10.67;;;8.33;;
17937;SDS011;16051;53.024;8.630;2023-04-06T07:14:17;12.57;;;8.73;;
17937;SDS011;16051;53.024;8.630;2023-04-06T07:22:57;11.20;;;8.93;;
17937;SDS011;16051;53.024;8.630;2023-04-06T07:26:59;11.07;;;8.57;;
17937;SDS011;16051;53.024;8.630;2023-04-06T07:35:27;8.67;;;7.67;;
17937;SDS011;16051;53.024;8.630;2023-04-06T07:39:32;11.63;;;7.70;;
17937;SDS011;16051;53.024;8.630;2023-04-06T07:43:35;11.03;;;8.27;;
17937;SDS011;16051;53.024;8.630;2023-04-06T07:52:13;8.20;;;6.93;;
17937;SDS011;16051;53.024;8.630;2023-04-06T08:00:40;7.30;;;6.33;;
17937;SDS011;16051;53.024;8.630;2023-04-06T08:04:43;9.00;;;6.83;;
17937;SDS011;16051;53.024;8.630;2023-04-06T08:08:46;8.73;;;6.80;;
17937;SDS011;16051;53.024;8.630;2023-04-06T08:12:50;9.40;;;7.33;;
17937;SDS011;16051;53.024;8.630;2023-04-06T08:17:02;9.27;;;6.23;;
17937;SDS011;16051;53.024;8.630;2023-04-06T08:21:05;10.33;;;6.80;;
17937;SDS011;16051;53.024;8.630;2023-04-06T08:29:33;8.50;;;7.00;;
17937;SDS011;16051;53.024;8.630;2023-04-06T08:33:35;9.77;;;6.83;;
17937;SDS011;16051;53.024;8.630;2023-04-06T08:37:47;9.23;;;6.97;;
17937;SDS011;16051;53.024;8.630;2023-04-06T08:41:49;8.13;;;6.70;;
17937;SDS011;16051;53.024;8.630;2023-04-06T08:45:53;13.57;;;7.47;;
17937;SDS011;16051;53.024;8.630;2023-04-06T08:50:02;11.17;;;6.90;;
17937;SDS011;16051;53.024;8.630;2023-04-06T08:54:06;7.23;;;6.40;;
17937;SDS011;16051;53.024;8.630;2023-04-06T08:58:08;8.40;;;6.67;;
17937;SDS011;16051;53.024;8.630;2023-04-06T09:02:15;10.83;;;6.63;;
17937;SDS011;16051;53.024;8.630;2023-04-06T09:06:19;10.07;;;6.53;;
17937;SDS011;16051;53.024;8.630;2023-04-06T09:10:23;7.10;;;5.97;;
17937;SDS011;16051;53.024;8.630;2023-04-06T09:14:35;7.30;;;6.43;;
17937;SDS011;16051;53.024;8.630;2023-04-06T09:18:39;7.47;;;6.63;;
17937;SDS011;16051;53.024;8.630;2023-04-06T09:22:53;9.30;;;7.17;;
17937;SDS011;16051;53.024;8.630;2023-04-06T09:26:56;8.97;;;6.57;;
17937;SDS011;16051;53.024;8.630;2023-04-06T09:31:04;9.57;;;6.60;;
17937;SDS011;16051;53.024;8.630;2023-04-06T09:35:08;7.60;;;6.33;;
17937;SDS011;16051;53.024;8.630;2023-04-06T09:39:11;8.67;;;6.17;;
17937;SDS011;16051;53.024;8.630;2023-04-06T09:43:23;10.13;;;6.90;;
17937;SDS011;16051;53.024;8.630;2023-04-06T09:47:26;10.63;;;6.23;;
17937;SDS011;16051;53.024;8.630;2023-04-06T09:51:31;7.10;;;6.37;;
17937;SDS011;16051;53.024;8.630;2023-04-06T09:55:54;8.67;;;6.97;;
17937;SDS011;16051;53.024;8.630;2023-04-06T10:00:04;8.77;;;6.60;;
17937;SDS011;16051;53.024;8.630;2023-04-06T10:04:13;9.07;;;6.57;;
17937;SDS011;16051;53.024;8.630;2023-04-06T10:08:29;9.00;;;7.37;;
17937;SDS011;16051;53.024;8.630;2023-04-06T10:12:36;8.67;;;7.27;;
17937;SDS011;16051;53.024;8.630;2023-04-06T10:20:47;10.37;;;7.27;;
17937;SDS011;16051;53.024;8.630;2023-04-06T10:24:56;9.87;;;7.77;;
17937;SDS011;16051;53.024;8.630;2023-04-06T10:29:09;11.20;;;7.80;;
17937;SDS011;16051;53.024;8.630;2023-04-06T10:33:14;9.67;;;7.47;;
17937;SDS011;16051;53.024;8.630;2023-04-06T10:37:18;11.13;;;7.50;;
17937;SDS011;16051;53.024;8.630;2023-04-06T10:41:22;9.63;;;7.93;;
17937;SDS011;16051;53.024;8.630;2023-04-06T10:45:26;9.87;;;8.10;;
17937;SDS011;16051;53.024;8.630;2023-04-06T10:49:40;9.73;;;8.00;;
17937;SDS011;16051;53.024;8.630;2023-04-06T10:53:43;9.73;;;8.37;;
17937;SDS011;16051;53.024;8.630;2023-04-06T10:57:55;10.27;;;7.80;;
17937;SDS011;16051;53.024;8.630;2023-04-06T11:01:57;9.93;;;8.20;;
17937;SDS011;16051;53.024;8.630;2023-04-06T11:06:00;11.10;;;8.10;;
17937;SDS011;16051;53.024;8.630;2023-04-06T11:10:08;9.47;;;7.77;;
17937;SDS011;16051;53.024;8.630;2023-04-06T11:14:12;10.73;;;8.37;;
17937;SDS011;16051;53.024;8.630;2023-04-06T11:18:19;10.77;;;7.43;;
17937;SDS011;16051;53.024;8.630;2023-04-06T11:22:22;10.87;;;7.77;;
17937;SDS011;16051;53.024;8.630;2023-04-06T11:26:25;8.57;;;7.60;;
17937;SDS011;16051;53.024;8.630;2023-04-06T11:30:29;9.20;;;7.83;;
17937;SDS011;16051;53.024;8.630;2023-04-06T11:34:33;9.27;;;7.90;;
17937;SDS011;16051;53.024;8.630;2023-04-06T11:38:38;10.70;;;7.60;;
17937;SDS011;16051;53.024;8.630;2023-04-06T11:42:56;10.70;;;7.93;;
17937;SDS011;16051;53.024;8.630;2023-04-06T11:47:00;13.77;;;8.60;;
17937;SDS011;16051;53.024;8.630;2023-04-06T11:51:03;9.60;;;7.97;;
17937;SDS011;16051;53.024;8.630;2023-04-06T11:55:14;10.27;;;8.90;;
17937;SDS011;16051;53.024;8.630;2023-04-06T11:59:18;10.37;;;8.20;;
17937;SDS011;16051;53.024;8.630;2023-04-06T12:03:33;9.93;;;8.23;;
17937;SDS011;16051;53.024;8.630;2023-04-06T12:07:36;10.17;;;7.70;;
17937;SDS011;16051;53.024;8.630;2023-04-06T12:11:38;8.87;;;7.97;;
17937;SDS011;16051;53.024;8.630;2023-04-06T12:15:46;9.63;;;7.83;;
17937;SDS011;16051;53.024;8.630;2023-04-06T12:19:51;11.13;;;8.80;;
17937;SDS011;16051;53.024;8.630;2023-04-06T12:23:53;9.70;;;8.20;;
17937;SDS011;16051;53.024;8.630;2023-04-06T12:27:55;10.30;;;8.10;;
17937;SDS011;16051;53.024;8.630;2023-04-06T12:31:57;11.97;;;8.63;;
17937;SDS011;16051;53.024;8.630;2023-04-06T12:36:02;10.43;;;8.07;;
17937;SDS011;16051;53.024;8.630;2023-04-06T12:44:37;9.90;;;7.87;;
17937;SDS011;16051;53.024;8.630;2023-04-06T12:48:41;10.37;;;8.03;;
17937;SDS011;16051;53.024;8.630;2023-04-06T12:52:44;9.07;;;7.67;;
17937;SDS011;16051;53.024;8.630;2023-04-06T12:56:48;9.17;;;8.10;;
17937;SDS011;16051;53.024;8.630;2023-04-06T13:00:50;8.97;;;7.70;;
17937;SDS011;16051;53.024;8.630;2023-04-06T13:04:52;8.00;;;7.20;;
17937;SDS011;16051;53.024;8.630;2023-04-06T13:08:56;9.57;;;7.47;;
17937;SDS011;16051;53.024;8.630;2023-04-06T13:17:26;9.70;;;7.53;;
17937;SDS011;16051;53.024;8.630;2023-04-06T13:21:28;8.40;;;7.50;;
17937;SDS011;16051;53.024;8.630;2023-04-06T13:25:32;9.63;;;8.03;;
17937;SDS011;16051;53.024;8.630;2023-04-06T13:29:35;9.97;;;7.90;;
17937;SDS011;16051;53.024;8.630;2023-04-06T13:33:43;9.00;;;7.63;;
17937;SDS011;16051;53.024;8.630;2023-04-06T13:37:45;9.10;;;8.00;;
17937;SDS011;16051;53.024;8.630;2023-04-06T13:41:49;8.37;;;7.40;;
17937;SDS011;16051;53.024;8.630;2023-04-06T13:45:52;9.53;;;8.20;;
17937;SDS011;16051;53.024;8.630;2023-04-06T13:49:55;11.70;;;9.13;;
17937;SDS011;16051;53.024;8.630;2023-04-06T13:53:57;11.23;;;9.70;;
17937;SDS011;16051;53.024;8.630;2023-04-06T13:58:09;11.50;;;8.33;;
17937;SDS011;16051;53.024;8.630;2023-04-06T14:02:11;13.13;;;8.97;;
17937;SDS011;16051;53.024;8.630;2023-04-06T14:06:13;10.37;;;8.63;;
17937;SDS011;16051;53.024;8.630;2023-04-06T14:10:16;8.30;;;7.37;;
17937;SDS011;16051;53.024;8.630;2023-04-06T14:14:22;16.53;;;8.93;;
17937;SDS011;16051;53.024;8.630;2023-04-06T14:18:24;9.10;;;7.70;;
17937;SDS011;16051;53.024;8.630;2023-04-06T14:22:31;8.53;;;7.20;;
17937;SDS011;16051;53.024;8.630;2023-04-06T14:26:35;8.93;;;7.53;;
17937;SDS011;16051;53.024;8.630;2023-04-06T14:30:39;8.13;;;6.90;;
17937;SDS011;16051;53.024;8.630;2023-04-06T14:34:47;8.13;;;7.23;;
17937;SDS011;16051;53.024;8.630;2023-04-06T14:38:49;9.33;;;7.83;;
17937;SDS011;16051;53.024;8.630;2023-04-06T14:42:53;10.17;;;7.87;;
17937;SDS011;16051;53.024;8.630;2023-04-06T14:46:57;9.50;;;7.93;;
17937;SDS011;16051;53.024;8.630;2023-04-06T14:51:17;11.17;;;8.17;;
17937;SDS011;16051;53.024;8.630;2023-04-06T14:55:19;13.57;;;9.23;;
17937;SDS011;16051;53.024;8.630;2023-04-06T14:59:21;11.27;;;10.15;;
17937;SDS011;16051;53.024;8.630;2023-04-06T15:07:38;10.50;;;8.73;;
17937;SDS011;16051;53.024;8.630;2023-04-06T15:11:40;11.13;;;8.57;;
17937;SDS011;16051;53.024;8.630;2023-04-06T15:15:44;9.03;;;8.13;;
17937;SDS011;16051;53.024;8.630;2023-04-06T15:19:48;9.93;;;8.93;;
17937;SDS011;16051;53.024;8.630;2023-04-06T15:23:50;10.07;;;8.40;;
17937;SDS011;16051;53.024;8.630;2023-04-06T15:27:59;9.43;;;8.53;;
17937;SDS011;16051;53.024;8.630;2023-04-06T15:32:01;10.18;;;9.18;;
17937;SDS011;16051;53.024;8.630;2023-04-06T15:36:06;10.50;;;9.40;;
17937;SDS011;16051;53.024;8.630;2023-04-06T15:40:23;13.00;;;9.50;;
17937;SDS011;16051;53.024;8.630;2023-04-06T15:44:26;10.95;;;9.50;;
17937;SDS011;16051;53.024;8.630;2023-04-06T15:48:28;12.73;;;9.97;;
17937;SDS011;16051;53.024;8.630;2023-04-06T15:52:33;11.07;;;9.57;;
17937;SDS011;16051;53.024;8.630;2023-04-06T15:56:35;9.83;;;8.53;;
17937;SDS011;16051;53.024;8.630;2023-04-06T16:00:47;10.07;;;9.07;;
17937;SDS011;16051;53.024;8.630;2023-04-06T16:04:49;10.90;;;8.77;;
17937;SDS011;16051;53.024;8.630;2023-04-06T16:09:04;10.80;;;8.97;;
17937;SDS011;16051;53.024;8.630;2023-04-06T16:13:06;11.40;;;9.37;;
17937;SDS011;16051;53.024;8.630;2023-04-06T16:17:08;11.73;;;10.52;;
17937;SDS011;16051;53.024;8.630;2023-04-06T16:21:13;11.80;;;9.47;;
17937;SDS011;16051;53.024;8.630;2023-04-06T16:25:18;10.70;;;9.00;;
17937;SDS011;16051;53.024;8.630;2023-04-06T16:29:20;9.73;;;8.70;;
17937;SDS011;16051;53.024;8.630;2023-04-06T16:33:28;10.87;;;8.83;;
17937;SDS011;16051;53.024;8.630;2023-04-06T16:37:35;11.20;;;9.50;;
17937;SDS011;16051;53.024;8.630;2023-04-06T16:41:42;9.70;;;8.70;;
17937;SDS011;16051;53.024;8.630;2023-04-06T16:45:50;10.00;;;8.77;;
17937;SDS011;16051;53.024;8.630;2023-04-06T16:49:52;10.63;;;8.63;;
17937;SDS011;16051;53.024;8.630;2023-04-06T16:53:55;9.85;;;8.90;;
17937;SDS011;16051;53.024;8.630;2023-04-06T16:58:00;9.67;;;8.20;;
17937;SDS011;16051;53.024;8.630;2023-04-06T17:02:02;11.03;;;9.13;;
17937;SDS011;16051;53.024;8.630;2023-04-06T17:06:20;10.23;;;8.57;;
17937;SDS011;16051;53.024;8.630;2023-04-06T17:10:35;11.43;;;8.77;;
17937;SDS011;16051;53.024;8.630;2023-04-06T17:14:42;9.63;;;8.63;;
17937;SDS011;16051;53.024;8.630;2023-04-06T17:18:52;9.37;;;8.37;;
17937;SDS011;16051;53.024;8.630;2023-04-06T17:22:56;11.17;;;8.53;;
17937;SDS011;16051;53.024;8.630;2023-04-06T17:26:58;10.37;;;8.67;;
17937;SDS011;16051;53.024;8.630;2023-04-06T17:31:01;10.43;;;8.50;;
17937;SDS011;16051;53.024;8.630;2023-04-06T17:35:17;11.27;;;9.00;;
17937;SDS011;16051;53.024;8.630;2023-04-06T17:39:19;10.33;;;8.63;;
17937;SDS011;16051;53.024;8.630;2023-04-06T17:43:21;11.37;;;8.63;;
17937;SDS011;16051;53.024;8.630;2023-04-06T17:47:25;10.23;;;7.90;;
17937;SDS011;16051;53.024;8.630;2023-04-06T17:51:31;11.30;;;7.90;;
17937;SDS011;16051;53.024;8.630;2023-04-06T17:55:35;10.00;;;8.60;;
17937;SDS011;16051;53.024;8.630;2023-04-06T17:59:37;9.40;;;7.73;;
17937;SDS011;16051;53.024;8.630;2023-04-06T18:03:41;9.63;;;8.23;;
17937;SDS011;16051;53.024;8.630;2023-04-06T18:07:50;12.13;;;8.03;;
17937;SDS011;16051;53.024;8.630;2023-04-06T18:11:54;10.90;;;7.53;;
17937;SDS011;16051;53.024;8.630;2023-04-06T18:15:59;10.67;;;8.17;;
17937;SDS011;16051;53.024;8.630;2023-04-06T18:20:07;10.43;;;8.03;;
17937;SDS011;16051;53.024;8.630;2023-04-06T18:24:17;9.10;;;8.00;;
17937;SDS011;16051;53.024;8.630;2023-04-06T18:28:19;9.40;;;8.10;;
17937;SDS011;16051;53.024;8.630;2023-04-06T18:41:02;10.97;;;8.87;;
17937;SDS011;16051;53.024;8.630;2023-04-06T18:45:05;13.17;;;10.57;;
17937;SDS011;16051;53.024;8.630;2023-04-06T18:49:08;15.87;;;10.83;;
17937;SDS011;16051;53.024;8.630;2023-04-06T18:57:38;16.07;;;10.13;;
17937;SDS011;16051;53.024;8.630;2023-04-06T19:01:40;13.37;;;9.57;;
17937;SDS011;16051;53.024;8.630;2023-04-06T19:05:44;12.53;;;9.77;;
17937;SDS011;16051;53.024;8.630;2023-04-06T19:09:48;12.60;;;10.33;;
17937;SDS011;16051;53.024;8.630;2023-04-06T19:13:51;13.17;;;9.67;;
17937;SDS011;16051;53.024;8.630;2023-04-06T19:17:54;13.63;;;9.47;;
17937;SDS011;16051;53.024;8.630;2023-04-06T19:26:28;13.30;;;8.93;;
17937;SDS011;16051;53.024;8.630;2023-04-06T19:30:31;11.00;;;9.00;;
17937;SDS011;16051;53.024;8.630;2023-04-06T19:34:49;12.37;;;9.30;;
17937;SDS011;16051;53.024;8.630;2023-04-06T19:38:52;16.37;;;10.13;;
17937;SDS011;16051;53.024;8.630;2023-04-06T19:43:02;12.73;;;9.47;;
17937;SDS011;16051;53.024;8.630;2023-04-06T19:47:04;11.70;;;8.90;;
17937;SDS011;16051;53.024;8.630;2023-04-06T19:51:07;12.67;;;8.47;;
17937;SDS011;16051;53.024;8.630;2023-04-06T19:55:09;13.87;;;8.93;;
17937;SDS011;16051;53.024;8.630;2023-04-06T19:59:12;11.47;;;9.07;;
17937;SDS011;16051;53.024;8.630;2023-04-06T20:03:14;10.93;;;8.43;;
17937;SDS011;16051;53.024;8.630;2023-04-06T20:07:16;14.40;;;8.63;;
17937;SDS011;16051;53.024;8.630;2023-04-06T20:11:19;13.63;;;8.70;;
17937;SDS011;16051;53.024;8.630;2023-04-06T20:15:22;11.60;;;8.17;;
17937;SDS011;16051;53.024;8.630;2023-04-06T20:23:31;12.10;;;8.60;;
17937;SDS011;16051;53.024;8.630;2023-04-06T20:27:36;11.77;;;8.03;;
17937;SDS011;16051;53.024;8.630;2023-04-06T20:31:39;14.17;;;9.10;;
17937;SDS011;16051;53.024;8.630;2023-04-06T20:35:41;11.97;;;8.63;;
17937;SDS011;16051;53.024;8.630;2023-04-06T20:48:47;12.07;;;7.90;;
17937;SDS011;16051;53.024;8.630;2023-04-06T20:52:49;11.57;;;8.60;;
17937;SDS011;16051;53.024;8.630;2023-04-06T20:56:51;11.67;;;8.03;;
17937;SDS011;16051;53.024;8.630;2023-04-06T21:01:09;12.53;;;8.27;;
17937;SDS011;16051;53.024;8.630;2023-04-06T21:05:15;11.17;;;8.40;;
17937;SDS011;16051;53.024;8.630;2023-04-06T21:09:19;10.57;;;8.13;;
17937;SDS011;16051;53.024;8.630;2023-04-06T21:13:22;11.17;;;8.27;;
17937;SDS011;16051;53.024;8.630;2023-04-06T21:17:24;11.00;;;7.60;;
17937;SDS011;16051;53.024;8.630;2023-04-06T21:21:28;11.10;;;7.43;;
17937;SDS011;16051;53.024;8.630;2023-04-06T21:25:30;9.37;;;7.87;;
17937;SDS011;16051;53.024;8.630;2023-04-06T21:29:32;10.00;;;7.60;;
17937;SDS011;16051;53.024;8.630;2023-04-06T21:33:35;8.30;;;7.47;;
17937;SDS011;16051;53.024;8.630;2023-04-06T21:37:38;11.43;;;8.00;;
17937;SDS011;16051;53.024;8.630;2023-04-06T21:46:01;9.50;;;7.30;;
17937;SDS011;16051;53.024;8.630;2023-04-06T21:50:14;10.07;;;7.80;;
17937;SDS011;16051;53.024;8.630;2023-04-06T21:54:18;10.23;;;8.07;;
17937;SDS011;16051;53.024;8.630;2023-04-06T22:02:28;11.90;;;8.30;;
17937;SDS011;16051;53.024;8.630;2023-04-06T22:06:38;11.53;;;7.60;;
17937;SDS011;16051;53.024;8.630;2023-04-06T22:10:42;11.93;;;7.73;;
17937;SDS011;16051;53.024;8.630;2023-04-06T22:14:44;10.93;;;7.60;;
17937;SDS011;16051;53.024;8.630;2023-04-06T22:18:47;10.13;;;8.27;;
17937;SDS011;16051;53.024;8.630;2023-04-06T22:26:59;10.57;;;7.73;;
17937;SDS011;16051;53.024;8.630;2023-04-06T22:31:07;11.47;;;8.70;;
17937;SDS011;16051;53.024;8.630;2023-04-06T22:35:10;14.60;;;9.50;;
17937;SDS011;16051;53.024;8.630;2023-04-06T22:39:12;13.53;;;8.93;;
17937;SDS011;16051;53.024;8.630;2023-04-06T22:43:15;12.60;;;8.47;;
17937;SDS011;16051;53.024;8.630;2023-04-06T22:47:17;14.77;;;8.70;;
17937;SDS011;16051;53.024;8.630;2023-04-06T22:51:19;11.17;;;8.37;;
17937;SDS011;16051;53.024;8.630;2023-04-06T22:55:22;13.80;;;8.43;;
17937;SDS011;16051;53.024;8.630;2023-04-06T22:59:25;12.67;;;8.30;;
17937;SDS011;16051;53.024;8.630;2023-04-06T23:03:27;10.00;;;7.93;;
17937;SDS011;16051;53.024;8.630;2023-04-06T23:07:30;12.77;;;8.47;;
17937;SDS011;16051;53.024;8.630;2023-04-06T23:11:36;13.07;;;9.33;;
17937;SDS011;16051;53.024;8.630;2023-04-06T23:15:39;14.93;;;9.13;;
17937;SDS011;16051;53.024;8.630;2023-04-06T23:19:42;13.30;;;8.70;;
17937;SDS011;16051;53.024;8.630;2023-04-06T23:28:16;14.50;;;9.70;;
17937;SDS011;16051;53.024;8.630;2023-04-06T23:32:19;12.07;;;9.37;;
17937;SDS011;16051;53.024;8.630;2023-04-06T23:40:54;13.67;;;8.90;;
17937;SDS011;16051;53.024;8.630;2023-04-06T23:44:56;13.03;;;9.13;;
17937;SDS011;16051;53.024;8.630;2023-04-06T23:49:00;11.57;;;8.43;;
17937;SDS011;16051;53.024;8.630;2023-04-06T23:53:18;13.37;;;8.53;;
17937;SDS011;16051;53.024;8.630;2023-04-06T23:57:20;10.60;;;8.40;;
